sensor_id;sensor_type;location;lat;lon;timestamp;temperature;humidity
15262;DHT22;7733;51.554;13.590;2022-07-18T00:00:06;14.60;99.90
15262;DHT22;7733;51.554;13.590;2022-07-18T00:02:33;14.70;99.90
15262;DHT22;7733;51.554;13.590;2022-07-18T00:04:59;14.40;99.90
15262;DHT22;7733;51.554;13.590;2022-07-18T00:07:25;14.30;99.90
15262;DHT22;7733;51.554;13.590;2022-07-18T00:09:50;14.40;99.90
15262;DHT22;7733;51.554;13.590;2022-07-18T00:12:16;14.60;99.90
15262;DHT22;7733;51.554;13.590;2022-07-18T00:14:42;14.80;99.90
15262;DHT22;7733;51.554;13.590;2022-07-18T00:17:09;14.60;99.90
15262;DHT22;7733;51.554;13.590;2022-07-18T00:19:36;14.30;99.90
15262;DHT22;7733;51.554;13.590;2022-07-18T00:22:02;14.30;99.90
15262;DHT22;7733;51.554;13.590;2022-07-18T00:24:29;14.10;99.90
15262;DHT22;7733;51.554;13.590;2022-07-18T00:26:55;14.00;99.90
15262;DHT22;7733;51.554;13.590;2022-07-18T00:29:20;13.80;99.90
15262;DHT22;7733;51.554;13.590;2022-07-18T00:31:46;14.00;99.90
15262;DHT22;7733;51.554;13.590;2022-07-18T00:34:12;14.20;99.90
15262;DHT22;7733;51.554;13.590;2022-07-18T00:36:37;14.20;99.90
15262;DHT22;7733;51.554;13.590;2022-07-18T00:39:03;13.90;99.90
15262;DHT22;7733;51.554;13.590;2022-07-18T00:41:29;13.80;99.90
15262;DHT22;7733;51.554;13.590;2022-07-18T00:43:55;13.50;99.90
15262;DHT22;7733;51.554;13.590;2022-07-18T00:46:24;13.40;99.90
15262;DHT22;7733;51.554;13.590;2022-07-18T00:48:51;13.40;99.90
15262;DHT22;7733;51.554;13.590;2022-07-18T00:51:18;13.60;99.90
15262;DHT22;7733;51.554;13.590;2022-07-18T00:53:45;13.40;99.90
15262;DHT22;7733;51.554;13.590;2022-07-18T00:56:13;13.40;99.90
15262;DHT22;7733;51.554;13.590;2022-07-18T00:58:42;13.30;99.90
15262;DHT22;7733;51.554;13.590;2022-07-18T01:01:09;13.50;99.90
15262;DHT22;7733;51.554;13.590;2022-07-18T01:03:53;13.50;99.90
15262;DHT22;7733;51.554;13.590;2022-07-18T01:06:19;13.60;99.90
15262;DHT22;7733;51.554;13.590;2022-07-18T01:08:45;13.60;99.90
15262;DHT22;7733;51.554;13.590;2022-07-18T01:11:12;13.40;99.90
15262;DHT22;7733;51.554;13.590;2022-07-18T01:13:38;13.10;99.90
15262;DHT22;7733;51.554;13.590;2022-07-18T01:16:05;13.10;99.90
15262;DHT22;7733;51.554;13.590;2022-07-18T01:18:31;13.30;99.90
15262;DHT22;7733;51.554;13.590;2022-07-18T01:20:57;13.50;99.90
15262;DHT22;7733;51.554;13.590;2022-07-18T01:23:22;13.40;99.90
15262;DHT22;7733;51.554;13.590;2022-07-18T01:25:48;13.40;99.90
15262;DHT22;7733;51.554;13.590;2022-07-18T01:28:14;13.30;99.90
15262;DHT22;7733;51.554;13.590;2022-07-18T01:30:40;13.40;99.90
15262;DHT22;7733;51.554;13.590;2022-07-18T01:33:06;13.30;99.90
15262;DHT22;7733;51.554;13.590;2022-07-18T01:35:32;13.30;99.90
15262;DHT22;7733;51.554;13.590;2022-07-18T01:38:00;13.30;99.90
15262;DHT22;7733;51.554;13.590;2022-07-18T01:40:28;13.30;99.90
15262;DHT22;7733;51.554;13.590;2022-07-18T01:42:54;13.00;99.90
15262;DHT22;7733;51.554;13.590;2022-07-18T01:45:21;13.00;99.90
15262;DHT22;7733;51.554;13.590;2022-07-18T01:47:47;12.80;99.90
15262;DHT22;7733;51.554;13.590;2022-07-18T01:50:13;12.90;99.90
15262;DHT22;7733;51.554;13.590;2022-07-18T01:52:40;12.60;99.90
15262;DHT22;7733;51.554;13.590;2022-07-18T01:55:07;12.60;99.90
15262;DHT22;7733;51.554;13.590;2022-07-18T01:57:35;12.60;99.90
15262;DHT22;7733;51.554;13.590;2022-07-18T02:00:03;12.80;99.90
15262;DHT22;7733;51.554;13.590;2022-07-18T02:02:30;13.00;99.90
15262;DHT22;7733;51.554;13.590;2022-07-18T02:04:55;13.00;99.90
15262;DHT22;7733;51.554;13.590;2022-07-18T02:07:30;12.80;99.90
15262;DHT22;7733;51.554;13.590;2022-07-18T02:09:59;12.40;99.90
15262;DHT22;7733;51.554;13.590;2022-07-18T02:12:26;12.30;99.90
15262;DHT22;7733;51.554;13.590;2022-07-18T02:14:52;12.10;99.90
15262;DHT22;7733;51.554;13.590;2022-07-18T02:17:18;11.80;99.90
15262;DHT22;7733;51.554;13.590;2022-07-18T02:19:44;11.90;99.90
15262;DHT22;7733;51.554;13.590;2022-07-18T02:22:10;12.10;99.90
15262;DHT22;7733;51.554;13.590;2022-07-18T02:24:36;12.30;99.90
15262;DHT22;7733;51.554;13.590;2022-07-18T02:27:02;12.40;99.90
15262;DHT22;7733;51.554;13.590;2022-07-18T02:29:28;12.50;99.90
15262;DHT22;7733;51.554;13.590;2022-07-18T02:31:54;12.30;99.90
15262;DHT22;7733;51.554;13.590;2022-07-18T02:34:20;11.90;99.90
15262;DHT22;7733;51.554;13.590;2022-07-18T02:36:45;11.70;99.90
15262;DHT22;7733;51.554;13.590;2022-07-18T02:39:12;11.90;99.90
15262;DHT22;7733;51.554;13.590;2022-07-18T02:41:37;11.90;99.90
15262;DHT22;7733;51.554;13.590;2022-07-18T02:44:03;11.90;99.90
15262;DHT22;7733;51.554;13.590;2022-07-18T02:46:29;11.90;99.90
15262;DHT22;7733;51.554;13.590;2022-07-18T02:48:55;12.20;99.90
15262;DHT22;7733;51.554;13.590;2022-07-18T02:51:21;12.20;99.90
15262;DHT22;7733;51.554;13.590;2022-07-18T02:53:46;12.20;99.90
15262;DHT22;7733;51.554;13.590;2022-07-18T02:56:12;12.20;99.90
15262;DHT22;7733;51.554;13.590;2022-07-18T02:58:38;12.30;99.90
15262;DHT22;7733;51.554;13.590;2022-07-18T03:01:03;12.30;99.90
15262;DHT22;7733;51.554;13.590;2022-07-18T03:03:29;12.30;99.90
15262;DHT22;7733;51.554;13.590;2022-07-18T03:05:55;12.30;99.90
15262;DHT22;7733;51.554;13.590;2022-07-18T03:08:20;12.10;99.90
15262;DHT22;7733;51.554;13.590;2022-07-18T03:10:46;12.10;99.90
15262;DHT22;7733;51.554;13.590;2022-07-18T03:13:12;12.10;99.90
15262;DHT22;7733;51.554;13.590;2022-07-18T03:15:39;12.10;99.90
15262;DHT22;7733;51.554;13.590;2022-07-18T03:18:05;12.10;99.90
15262;DHT22;7733;51.554;13.590;2022-07-18T03:20:31;12.20;99.90
15262;DHT22;7733;51.554;13.590;2022-07-18T03:22:57;12.00;99.90
15262;DHT22;7733;51.554;13.590;2022-07-18T03:25:23;11.70;99.90
15262;DHT22;7733;51.554;13.590;2022-07-18T03:27:49;11.80;99.90
15262;DHT22;7733;51.554;13.590;2022-07-18T03:30:15;11.90;99.90
15262;DHT22;7733;51.554;13.590;2022-07-18T03:32:41;11.70;99.90
15262;DHT22;7733;51.554;13.590;2022-07-18T03:35:07;11.70;99.90
15262;DHT22;7733;51.554;13.590;2022-07-18T03:37:33;11.80;99.90
15262;DHT22;7733;51.554;13.590;2022-07-18T03:39:58;11.90;99.90
15262;DHT22;7733;51.554;13.590;2022-07-18T03:42:24;11.80;99.90
15262;DHT22;7733;51.554;13.590;2022-07-18T03:44:50;11.60;99.90
15262;DHT22;7733;51.554;13.590;2022-07-18T03:47:16;11.80;99.90
15262;DHT22;7733;51.554;13.590;2022-07-18T03:49:41;11.60;99.90
15262;DHT22;7733;51.554;13.590;2022-07-18T03:52:07;11.50;99.90
15262;DHT22;7733;51.554;13.590;2022-07-18T03:54:32;11.60;99.90
15262;DHT22;7733;51.554;13.590;2022-07-18T03:56:58;11.50;99.90
15262;DHT22;7733;51.554;13.590;2022-07-18T03:59:24;11.60;99.90
15262;DHT22;7733;51.554;13.590;2022-07-18T04:01:49;11.70;99.90
15262;DHT22;7733;51.554;13.590;2022-07-18T04:04:15;11.40;99.90
15262;DHT22;7733;51.554;13.590;2022-07-18T04:06:41;11.60;99.90
15262;DHT22;7733;51.554;13.590;2022-07-18T04:09:06;11.60;99.90
15262;DHT22;7733;51.554;13.590;2022-07-18T04:11:32;11.40;99.90
15262;DHT22;7733;51.554;13.590;2022-07-18T04:13:58;11.40;99.90
15262;DHT22;7733;51.554;13.590;2022-07-18T04:16:23;11.40;99.90
15262;DHT22;7733;51.554;13.590;2022-07-18T04:18:49;11.40;99.90
15262;DHT22;7733;51.554;13.590;2022-07-18T04:21:15;11.50;99.90
15262;DHT22;7733;51.554;13.590;2022-07-18T04:23:42;11.60;99.90
15262;DHT22;7733;51.554;13.590;2022-07-18T04:26:08;11.60;99.90
15262;DHT22;7733;51.554;13.590;2022-07-18T04:28:34;11.70;99.90
15262;DHT22;7733;51.554;13.590;2022-07-18T04:31:01;11.70;99.90
15262;DHT22;7733;51.554;13.590;2022-07-18T04:33:27;11.70;99.90
15262;DHT22;7733;51.554;13.590;2022-07-18T04:35:53;11.90;99.90
15262;DHT22;7733;51.554;13.590;2022-07-18T04:38:18;12.20;99.90
15262;DHT22;7733;51.554;13.590;2022-07-18T04:40:44;12.30;99.90
15262;DHT22;7733;51.554;13.590;2022-07-18T04:43:10;12.40;99.90
15262;DHT22;7733;51.554;13.590;2022-07-18T04:45:36;12.40;99.90
15262;DHT22;7733;51.554;13.590;2022-07-18T04:48:04;12.40;99.90
15262;DHT22;7733;51.554;13.590;2022-07-18T04:50:30;12.50;99.90
15262;DHT22;7733;51.554;13.590;2022-07-18T04:52:57;12.70;99.90
15262;DHT22;7733;51.554;13.590;2022-07-18T04:55:24;12.80;99.90
15262;DHT22;7733;51.554;13.590;2022-07-18T04:57:51;12.90;99.90
15262;DHT22;7733;51.554;13.590;2022-07-18T05:00:23;13.10;99.90
15262;DHT22;7733;51.554;13.590;2022-07-18T05:02:51;13.20;99.90
15262;DHT22;7733;51.554;13.590;2022-07-18T05:05:19;13.20;99.90
15262;DHT22;7733;51.554;13.590;2022-07-18T05:07:47;13.30;99.90
15262;DHT22;7733;51.554;13.590;2022-07-18T05:10:14;13.30;99.90
15262;DHT22;7733;51.554;13.590;2022-07-18T05:12:43;13.40;99.90
15262;DHT22;7733;51.554;13.590;2022-07-18T05:15:11;13.50;99.90
15262;DHT22;7733;51.554;13.590;2022-07-18T05:17:39;13.60;99.90
15262;DHT22;7733;51.554;13.590;2022-07-18T05:20:06;13.70;99.90
15262;DHT22;7733;51.554;13.590;2022-07-18T05:22:35;14.00;99.90
15262;DHT22;7733;51.554;13.590;2022-07-18T05:25:04;14.10;99.90
15262;DHT22;7733;51.554;13.590;2022-07-18T05:27:31;14.20;99.90
15262;DHT22;7733;51.554;13.590;2022-07-18T05:29:57;14.30;99.90
15262;DHT22;7733;51.554;13.590;2022-07-18T05:32:24;14.40;99.90
15262;DHT22;7733;51.554;13.590;2022-07-18T05:34:50;14.60;99.90
15262;DHT22;7733;51.554;13.590;2022-07-18T05:37:16;14.80;99.90
15262;DHT22;7733;51.554;13.590;2022-07-18T05:39:42;14.90;99.90
15262;DHT22;7733;51.554;13.590;2022-07-18T05:42:08;15.00;99.90
15262;DHT22;7733;51.554;13.590;2022-07-18T05:44:33;15.10;99.90
15262;DHT22;7733;51.554;13.590;2022-07-18T05:46:59;15.30;99.90
15262;DHT22;7733;51.554;13.590;2022-07-18T05:49:24;15.50;99.90
15262;DHT22;7733;51.554;13.590;2022-07-18T05:51:50;15.50;99.90
15262;DHT22;7733;51.554;13.590;2022-07-18T05:54:16;15.40;99.90
15262;DHT22;7733;51.554;13.590;2022-07-18T05:56:46;15.40;99.90
15262;DHT22;7733;51.554;13.590;2022-07-18T05:59:13;15.40;99.90
15262;DHT22;7733;51.554;13.590;2022-07-18T06:01:39;15.60;99.90
15262;DHT22;7733;51.554;13.590;2022-07-18T06:04:05;16.00;99.90
15262;DHT22;7733;51.554;13.590;2022-07-18T06:06:31;16.30;99.90
15262;DHT22;7733;51.554;13.590;2022-07-18T06:08:57;16.30;99.90
15262;DHT22;7733;51.554;13.590;2022-07-18T06:11:22;16.40;99.90
15262;DHT22;7733;51.554;13.590;2022-07-18T06:13:49;16.60;99.90
15262;DHT22;7733;51.554;13.590;2022-07-18T06:16:14;16.70;99.90
15262;DHT22;7733;51.554;13.590;2022-07-18T06:18:40;16.80;99.90
15262;DHT22;7733;51.554;13.590;2022-07-18T06:21:06;17.00;99.90
15262;DHT22;7733;51.554;13.590;2022-07-18T06:23:32;17.00;99.90
15262;DHT22;7733;51.554;13.590;2022-07-18T06:25:58;17.00;99.90
15262;DHT22;7733;51.554;13.590;2022-07-18T06:28:24;17.40;99.90
15262;DHT22;7733;51.554;13.590;2022-07-18T06:30:51;17.60;99.90
15262;DHT22;7733;51.554;13.590;2022-07-18T06:33:18;17.70;99.90
15262;DHT22;7733;51.554;13.590;2022-07-18T06:35:43;17.70;99.90
15262;DHT22;7733;51.554;13.590;2022-07-18T06:38:09;17.70;99.90
15262;DHT22;7733;51.554;13.590;2022-07-18T06:40:34;17.70;99.90
15262;DHT22;7733;51.554;13.590;2022-07-18T06:43:00;17.80;99.90
15262;DHT22;7733;51.554;13.590;2022-07-18T06:45:26;17.90;99.90
15262;DHT22;7733;51.554;13.590;2022-07-18T06:47:51;18.00;99.90
15262;DHT22;7733;51.554;13.590;2022-07-18T06:50:17;18.20;99.90
15262;DHT22;7733;51.554;13.590;2022-07-18T06:52:44;18.40;99.90
15262;DHT22;7733;51.554;13.590;2022-07-18T06:55:11;18.40;99.90
15262;DHT22;7733;51.554;13.590;2022-07-18T06:57:39;18.50;99.90
15262;DHT22;7733;51.554;13.590;2022-07-18T07:00:07;18.60;99.90
15262;DHT22;7733;51.554;13.590;2022-07-18T07:02:34;18.70;99.90
15262;DHT22;7733;51.554;13.590;2022-07-18T07:05:05;18.70;99.90
15262;DHT22;7733;51.554;13.590;2022-07-18T07:07:31;19.00;99.90
15262;DHT22;7733;51.554;13.590;2022-07-18T07:09:56;19.10;99.90
15262;DHT22;7733;51.554;13.590;2022-07-18T07:12:22;19.10;99.90
15262;DHT22;7733;51.554;13.590;2022-07-18T07:14:47;19.40;99.90
15262;DHT22;7733;51.554;13.590;2022-07-18T07:17:13;19.60;99.90
15262;DHT22;7733;51.554;13.590;2022-07-18T07:19:39;19.70;99.60
15262;DHT22;7733;51.554;13.590;2022-07-18T07:22:04;19.90;99.40
15262;DHT22;7733;51.554;13.590;2022-07-18T07:24:30;20.00;98.40
15262;DHT22;7733;51.554;13.590;2022-07-18T07:26:55;20.20;97.90
15262;DHT22;7733;51.554;13.590;2022-07-18T07:29:21;20.10;97.60
15262;DHT22;7733;51.554;13.590;2022-07-18T07:31:47;20.20;97.40
15262;DHT22;7733;51.554;13.590;2022-07-18T07:34:13;20.40;97.60
15262;DHT22;7733;51.554;13.590;2022-07-18T07:36:39;20.60;96.80
15262;DHT22;7733;51.554;13.590;2022-07-18T07:39:05;20.70;95.80
15262;DHT22;7733;51.554;13.590;2022-07-18T07:41:31;20.80;95.40
15262;DHT22;7733;51.554;13.590;2022-07-18T07:43:57;20.90;95.40
15262;DHT22;7733;51.554;13.590;2022-07-18T07:46:23;21.20;94.70
15262;DHT22;7733;51.554;13.590;2022-07-18T07:48:48;21.30;94.10
15262;DHT22;7733;51.554;13.590;2022-07-18T07:51:14;21.60;93.40
15262;DHT22;7733;51.554;13.590;2022-07-18T07:53:40;21.70;92.20
15262;DHT22;7733;51.554;13.590;2022-07-18T07:56:06;21.90;91.60
15262;DHT22;7733;51.554;13.590;2022-07-18T07:58:32;22.20;90.70
15262;DHT22;7733;51.554;13.590;2022-07-18T08:00:58;22.20;89.50
15262;DHT22;7733;51.554;13.590;2022-07-18T08:03:23;22.40;88.60
15262;DHT22;7733;51.554;13.590;2022-07-18T08:05:50;22.50;86.60
15262;DHT22;7733;51.554;13.590;2022-07-18T08:08:16;22.60;85.70
15262;DHT22;7733;51.554;13.590;2022-07-18T08:10:44;22.60;85.00
15262;DHT22;7733;51.554;13.590;2022-07-18T08:13:12;23.00;83.00
15262;DHT22;7733;51.554;13.590;2022-07-18T08:15:38;22.90;80.90
15262;DHT22;7733;51.554;13.590;2022-07-18T08:18:04;23.00;79.50
15262;DHT22;7733;51.554;13.590;2022-07-18T08:20:30;23.30;77.80
15262;DHT22;7733;51.554;13.590;2022-07-18T08:22:59;23.30;76.60
15262;DHT22;7733;51.554;13.590;2022-07-18T08:25:31;23.30;75.30
15262;DHT22;7733;51.554;13.590;2022-07-18T08:27:59;23.50;74.50
15262;DHT22;7733;51.554;13.590;2022-07-18T08:30:25;23.90;72.60
15262;DHT22;7733;51.554;13.590;2022-07-18T08:32:52;23.80;71.10
15262;DHT22;7733;51.554;13.590;2022-07-18T08:35:18;23.90;70.60
15262;DHT22;7733;51.554;13.590;2022-07-18T08:37:44;24.20;70.70
15262;DHT22;7733;51.554;13.590;2022-07-18T08:40:10;24.50;69.30
15262;DHT22;7733;51.554;13.590;2022-07-18T08:42:36;24.50;68.90
15262;DHT22;7733;51.554;13.590;2022-07-18T08:45:02;24.70;70.10
15262;DHT22;7733;51.554;13.590;2022-07-18T08:47:29;25.00;68.60
15262;DHT22;7733;51.554;13.590;2022-07-18T08:49:56;25.10;67.90
15262;DHT22;7733;51.554;13.590;2022-07-18T08:52:22;25.20;66.80
15262;DHT22;7733;51.554;13.590;2022-07-18T08:54:48;25.40;66.20
15262;DHT22;7733;51.554;13.590;2022-07-18T08:57:15;25.10;64.50
15262;DHT22;7733;51.554;13.590;2022-07-18T08:59:41;25.40;63.40
15262;DHT22;7733;51.554;13.590;2022-07-18T09:02:07;25.30;63.50
15262;DHT22;7733;51.554;13.590;2022-07-18T09:04:35;25.30;63.40
15262;DHT22;7733;51.554;13.590;2022-07-18T09:07:06;25.40;63.30
15262;DHT22;7733;51.554;13.590;2022-07-18T09:09:37;25.20;61.40
15262;DHT22;7733;51.554;13.590;2022-07-18T09:12:05;25.30;61.80
15262;DHT22;7733;51.554;13.590;2022-07-18T09:14:42;25.40;61.00
15262;DHT22;7733;51.554;13.590;2022-07-18T09:17:24;25.30;60.00
15262;DHT22;7733;51.554;13.590;2022-07-18T09:20:07;25.50;59.60
15262;DHT22;7733;51.554;13.590;2022-07-18T09:22:38;25.80;59.30
15262;DHT22;7733;51.554;13.590;2022-07-18T09:27:40;26.20;58.60
15262;DHT22;7733;51.554;13.590;2022-07-18T09:32:42;26.20;57.80
15262;DHT22;7733;51.554;13.590;2022-07-18T09:35:17;26.40;58.20
15262;DHT22;7733;51.554;13.590;2022-07-18T09:40:27;25.90;57.10
15262;DHT22;7733;51.554;13.590;2022-07-18T09:43:05;26.20;57.30
15262;DHT22;7733;51.554;13.590;2022-07-18T09:45:51;26.40;57.40
15262;DHT22;7733;51.554;13.590;2022-07-18T09:48:21;26.20;56.90
15262;DHT22;7733;51.554;13.590;2022-07-18T09:53:34;26.80;55.70
15262;DHT22;7733;51.554;13.590;2022-07-18T09:56:07;26.50;55.40
15262;DHT22;7733;51.554;13.590;2022-07-18T09:58:53;27.00;55.70
15262;DHT22;7733;51.554;13.590;2022-07-18T10:01:20;27.10;55.30
15262;DHT22;7733;51.554;13.590;2022-07-18T10:03:47;26.80;54.70
15262;DHT22;7733;51.554;13.590;2022-07-18T10:06:16;26.80;54.50
15262;DHT22;7733;51.554;13.590;2022-07-18T10:08:43;26.80;52.90
15262;DHT22;7733;51.554;13.590;2022-07-18T10:11:09;26.60;52.90
15262;DHT22;7733;51.554;13.590;2022-07-18T10:13:36;26.80;53.60
15262;DHT22;7733;51.554;13.590;2022-07-18T10:16:04;27.20;52.90
15262;DHT22;7733;51.554;13.590;2022-07-18T10:18:33;26.80;53.70
15262;DHT22;7733;51.554;13.590;2022-07-18T10:21:14;27.10;52.90
15262;DHT22;7733;51.554;13.590;2022-07-18T10:23:46;27.10;52.30
15262;DHT22;7733;51.554;13.590;2022-07-18T10:31:26;27.80;51.20
15262;DHT22;7733;51.554;13.590;2022-07-18T10:33:54;28.10;51.10
15262;DHT22;7733;51.554;13.590;2022-07-18T10:39:16;28.70;50.70
15262;DHT22;7733;51.554;13.590;2022-07-18T10:57:30;28.20;51.30
15262;DHT22;7733;51.554;13.590;2022-07-18T11:02:43;28.80;51.00
15262;DHT22;7733;51.554;13.590;2022-07-18T11:16:03;28.40;51.30
15262;DHT22;7733;51.554;13.590;2022-07-18T11:24:00;28.10;52.00
15262;DHT22;7733;51.554;13.590;2022-07-18T11:26:35;28.60;51.30
15262;DHT22;7733;51.554;13.590;2022-07-18T11:29:04;29.10;50.90
15262;DHT22;7733;51.554;13.590;2022-07-18T11:31:42;29.60;50.70
15262;DHT22;7733;51.554;13.590;2022-07-18T11:34:09;29.50;50.40
15262;DHT22;7733;51.554;13.590;2022-07-18T11:36:34;29.00;50.60
15262;DHT22;7733;51.554;13.590;2022-07-18T11:39:04;29.10;50.80
15262;DHT22;7733;51.554;13.590;2022-07-18T11:41:30;29.40;49.80
15262;DHT22;7733;51.554;13.590;2022-07-18T11:43:56;29.40;49.90
15262;DHT22;7733;51.554;13.590;2022-07-18T11:46:24;29.20;50.70
15262;DHT22;7733;51.554;13.590;2022-07-18T11:49:05;28.90;50.30
15262;DHT22;7733;51.554;13.590;2022-07-18T11:51:40;29.20;50.50
15262;DHT22;7733;51.554;13.590;2022-07-18T11:54:07;29.20;50.00
15262;DHT22;7733;51.554;13.590;2022-07-18T11:56:48;28.80;50.50
15262;DHT22;7733;51.554;13.590;2022-07-18T11:59:16;29.70;50.20
15262;DHT22;7733;51.554;13.590;2022-07-18T12:01:43;29.80;49.40
15262;DHT22;7733;51.554;13.590;2022-07-18T12:04:17;30.00;49.40
15262;DHT22;7733;51.554;13.590;2022-07-18T12:06:44;30.20;49.40
15262;DHT22;7733;51.554;13.590;2022-07-18T12:09:11;29.80;49.60
15262;DHT22;7733;51.554;13.590;2022-07-18T12:11:37;29.60;50.00
15262;DHT22;7733;51.554;13.590;2022-07-18T12:16:37;29.90;50.00
15262;DHT22;7733;51.554;13.590;2022-07-18T12:19:18;29.70;49.40
15262;DHT22;7733;51.554;13.590;2022-07-18T12:21:59;29.40;49.70
15262;DHT22;7733;51.554;13.590;2022-07-18T12:24:52;29.20;50.30
15262;DHT22;7733;51.554;13.590;2022-07-18T12:32:54;28.80;50.80
15262;DHT22;7733;51.554;13.590;2022-07-18T12:35:29;28.80;50.70
15262;DHT22;7733;51.554;13.590;2022-07-18T12:38:11;29.00;50.40
15262;DHT22;7733;51.554;13.590;2022-07-18T12:43:31;29.30;50.90
15262;DHT22;7733;51.554;13.590;2022-07-18T12:46:01;29.20;50.50
15262;DHT22;7733;51.554;13.590;2022-07-18T12:48:30;29.20;50.20
15262;DHT22;7733;51.554;13.590;2022-07-18T12:51:00;28.90;50.50
15262;DHT22;7733;51.554;13.590;2022-07-18T12:53:29;29.20;50.70
15262;DHT22;7733;51.554;13.590;2022-07-18T12:55:57;29.40;49.90
15262;DHT22;7733;51.554;13.590;2022-07-18T12:58:23;29.70;49.60
15262;DHT22;7733;51.554;13.590;2022-07-18T13:00:49;29.90;49.70
15262;DHT22;7733;51.554;13.590;2022-07-18T13:03:16;30.20;49.10
15262;DHT22;7733;51.554;13.590;2022-07-18T13:05:42;30.20;48.80
15262;DHT22;7733;51.554;13.590;2022-07-18T13:08:08;30.20;48.90
15262;DHT22;7733;51.554;13.590;2022-07-18T13:10:36;30.00;49.30
15262;DHT22;7733;51.554;13.590;2022-07-18T13:13:04;29.40;49.50
15262;DHT22;7733;51.554;13.590;2022-07-18T13:15:31;29.20;49.70
15262;DHT22;7733;51.554;13.590;2022-07-18T13:17:57;29.50;49.30
15262;DHT22;7733;51.554;13.590;2022-07-18T13:20:23;29.00;49.90
15262;DHT22;7733;51.554;13.590;2022-07-18T13:22:50;28.80;50.00
15262;DHT22;7733;51.554;13.590;2022-07-18T13:25:16;28.80;50.20
15262;DHT22;7733;51.554;13.590;2022-07-18T13:27:42;29.10;50.30
15262;DHT22;7733;51.554;13.590;2022-07-18T13:30:08;29.40;49.40
15262;DHT22;7733;51.554;13.590;2022-07-18T13:32:35;29.40;49.20
15262;DHT22;7733;51.554;13.590;2022-07-18T13:35:02;29.20;50.00
15262;DHT22;7733;51.554;13.590;2022-07-18T13:37:28;29.50;49.50
15262;DHT22;7733;51.554;13.590;2022-07-18T13:39:54;29.50;49.50
15262;DHT22;7733;51.554;13.590;2022-07-18T13:42:19;29.60;49.60
15262;DHT22;7733;51.554;13.590;2022-07-18T13:44:45;30.00;49.00
15262;DHT22;7733;51.554;13.590;2022-07-18T13:47:15;29.70;49.10
15262;DHT22;7733;51.554;13.590;2022-07-18T13:49:41;30.10;49.10
15262;DHT22;7733;51.554;13.590;2022-07-18T13:52:08;30.30;48.20
15262;DHT22;7733;51.554;13.590;2022-07-18T13:54:34;30.00;48.80
15262;DHT22;7733;51.554;13.590;2022-07-18T13:57:00;29.70;49.20
15262;DHT22;7733;51.554;13.590;2022-07-18T13:59:25;29.70;49.00
15262;DHT22;7733;51.554;13.590;2022-07-18T14:01:51;29.50;49.30
15262;DHT22;7733;51.554;13.590;2022-07-18T14:04:17;29.80;49.00
15262;DHT22;7733;51.554;13.590;2022-07-18T14:06:44;30.00;48.50
15262;DHT22;7733;51.554;13.590;2022-07-18T14:09:10;30.20;48.60
15262;DHT22;7733;51.554;13.590;2022-07-18T14:11:36;30.30;48.70
15262;DHT22;7733;51.554;13.590;2022-07-18T14:14:03;30.10;48.70
15262;DHT22;7733;51.554;13.590;2022-07-18T14:16:30;29.80;49.10
15262;DHT22;7733;51.554;13.590;2022-07-18T14:18:57;29.80;50.00
15262;DHT22;7733;51.554;13.590;2022-07-18T14:21:23;29.60;49.60
15262;DHT22;7733;51.554;13.590;2022-07-18T14:23:49;29.50;49.60
15262;DHT22;7733;51.554;13.590;2022-07-18T14:26:15;29.40;49.50
15262;DHT22;7733;51.554;13.590;2022-07-18T14:28:41;29.40;49.50
15262;DHT22;7733;51.554;13.590;2022-07-18T14:31:07;29.50;49.60
15262;DHT22;7733;51.554;13.590;2022-07-18T14:33:33;29.40;49.90
15262;DHT22;7733;51.554;13.590;2022-07-18T14:35:58;29.40;49.80
15262;DHT22;7733;51.554;13.590;2022-07-18T14:38:24;29.40;50.00
15262;DHT22;7733;51.554;13.590;2022-07-18T14:40:50;29.70;49.00
15262;DHT22;7733;51.554;13.590;2022-07-18T14:43:15;29.80;49.20
15262;DHT22;7733;51.554;13.590;2022-07-18T14:45:41;29.70;49.80
15262;DHT22;7733;51.554;13.590;2022-07-18T14:48:07;29.50;49.80
15262;DHT22;7733;51.554;13.590;2022-07-18T14:50:33;29.40;49.50
15262;DHT22;7733;51.554;13.590;2022-07-18T14:52:58;29.40;49.30
15262;DHT22;7733;51.554;13.590;2022-07-18T14:55:24;29.30;50.40
15262;DHT22;7733;51.554;13.590;2022-07-18T14:57:50;29.30;49.90
15262;DHT22;7733;51.554;13.590;2022-07-18T15:00:15;29.40;49.80
15262;DHT22;7733;51.554;13.590;2022-07-18T15:02:41;29.80;49.30
15262;DHT22;7733;51.554;13.590;2022-07-18T15:05:08;29.80;48.70
15262;DHT22;7733;51.554;13.590;2022-07-18T15:07:34;30.10;49.30
15262;DHT22;7733;51.554;13.590;2022-07-18T15:10:00;30.20;49.30
15262;DHT22;7733;51.554;13.590;2022-07-18T15:12:26;29.90;48.70
15262;DHT22;7733;51.554;13.590;2022-07-18T15:14:53;29.80;49.10
15262;DHT22;7733;51.554;13.590;2022-07-18T15:17:22;29.80;49.00
15262;DHT22;7733;51.554;13.590;2022-07-18T15:19:48;29.90;49.10
15262;DHT22;7733;51.554;13.590;2022-07-18T15:22:14;30.00;48.80
15262;DHT22;7733;51.554;13.590;2022-07-18T15:24:39;30.20;49.20
15262;DHT22;7733;51.554;13.590;2022-07-18T15:27:05;30.40;48.90
15262;DHT22;7733;51.554;13.590;2022-07-18T15:29:31;30.40;48.70
15262;DHT22;7733;51.554;13.590;2022-07-18T15:31:57;29.90;49.10
15262;DHT22;7733;51.554;13.590;2022-07-18T15:34:24;29.80;49.00
15262;DHT22;7733;51.554;13.590;2022-07-18T15:36:50;29.90;48.90
15262;DHT22;7733;51.554;13.590;2022-07-18T15:39:15;30.00;48.90
15262;DHT22;7733;51.554;13.590;2022-07-18T15:41:41;30.00;49.50
15262;DHT22;7733;51.554;13.590;2022-07-18T15:44:11;30.10;49.50
15262;DHT22;7733;51.554;13.590;2022-07-18T15:46:37;30.10;49.60
15262;DHT22;7733;51.554;13.590;2022-07-18T15:49:03;30.30;49.30
15262;DHT22;7733;51.554;13.590;2022-07-18T15:51:29;30.50;49.00
15262;DHT22;7733;51.554;13.590;2022-07-18T15:53:55;30.60;48.50
15262;DHT22;7733;51.554;13.590;2022-07-18T15:56:20;30.50;48.90
15262;DHT22;7733;51.554;13.590;2022-07-18T15:58:46;30.40;48.50
15262;DHT22;7733;51.554;13.590;2022-07-18T16:01:11;30.30;48.60
15262;DHT22;7733;51.554;13.590;2022-07-18T16:03:37;30.20;48.90
15262;DHT22;7733;51.554;13.590;2022-07-18T16:06:03;30.30;48.80
15262;DHT22;7733;51.554;13.590;2022-07-18T16:08:29;30.20;48.70
15262;DHT22;7733;51.554;13.590;2022-07-18T16:10:55;30.10;48.60
15262;DHT22;7733;51.554;13.590;2022-07-18T16:13:20;30.00;48.90
15262;DHT22;7733;51.554;13.590;2022-07-18T16:15:47;30.10;48.80
15262;DHT22;7733;51.554;13.590;2022-07-18T16:18:13;30.20;49.30
15262;DHT22;7733;51.554;13.590;2022-07-18T16:20:40;30.10;48.90
15262;DHT22;7733;51.554;13.590;2022-07-18T16:23:07;30.10;48.90
15262;DHT22;7733;51.554;13.590;2022-07-18T16:25:33;30.00;49.10
15262;DHT22;7733;51.554;13.590;2022-07-18T16:27:59;29.90;50.10
15262;DHT22;7733;51.554;13.590;2022-07-18T16:30:25;30.00;50.50
15262;DHT22;7733;51.554;13.590;2022-07-18T16:32:52;30.00;50.60